createdAt,value
2022-12-26T00:00:59.943Z,4.50
2022-12-26T00:03:28.105Z,4.88
2022-12-26T00:05:57.429Z,4.70
2022-12-26T00:08:25.340Z,4.90
2022-12-26T00:10:53.285Z,4.78
2022-12-26T00:13:39.232Z,4.85
2022-12-26T00:16:10.522Z,4.10
2022-12-26T00:18:38.940Z,5.35
2022-12-26T00:21:08.955Z,5.22
2022-12-26T00:23:37.073Z,4.90
2022-12-26T00:26:05.659Z,5.25
2022-12-26T00:28:33.775Z,5.05
2022-12-26T00:31:04.871Z,5.07
2022-12-26T00:33:32.793Z,4.70
2022-12-26T00:36:02.485Z,5.82
2022-12-26T00:38:31.834Z,5.28
2022-12-26T00:40:59.674Z,5.43
2022-12-26T00:43:27.649Z,5.03
2022-12-26T00:45:55.576Z,5.50
2022-12-26T00:48:23.581Z,5.53
2022-12-26T00:50:51.686Z,4.95
2022-12-26T00:53:19.900Z,5.47
2022-12-26T00:55:49.672Z,5.95
2022-12-26T00:58:17.576Z,5.63
2022-12-26T01:00:45.516Z,5.63
2022-12-26T01:03:14.035Z,5.45
2022-12-26T01:05:42.948Z,5.93
2022-12-26T01:08:21.583Z,5.80
2022-12-26T01:10:53.974Z,6.15
2022-12-26T01:13:22.397Z,5.93
2022-12-26T01:15:51.287Z,5.63
2022-12-26T01:18:19.571Z,5.63
2022-12-26T01:20:47.639Z,5.65
2022-12-26T01:23:15.618Z,6.35
2022-12-26T01:26:18.181Z,5.70
2022-12-26T01:28:32.819Z,5.63
2022-12-26T01:31:03.303Z,5.25
2022-12-26T01:33:31.869Z,5.75
2022-12-26T01:36:00.304Z,6.07
2022-12-26T01:38:28.399Z,5.95
2022-12-26T01:41:10.458Z,6.07
2022-12-26T01:43:51.852Z,5.32
2022-12-26T01:46:21.439Z,6.40
2022-12-26T01:48:49.541Z,6.15
2022-12-26T01:51:17.766Z,5.75
2022-12-26T01:53:47.375Z,5.97
2022-12-26T01:56:17.621Z,6.68
2022-12-26T01:58:48.670Z,6.68
2022-12-26T02:01:18.842Z,5.03
2022-12-26T02:04:05.201Z,6.30
2022-12-26T02:06:33.547Z,5.72
2022-12-26T02:09:01.434Z,5.55
2022-12-26T02:11:33.829Z,5.10
2022-12-26T02:14:12.328Z,5.20
2022-12-26T02:16:43.272Z,5.30
2022-12-26T02:19:21.610Z,5.70
2022-12-26T02:22:10.684Z,4.75
2022-12-26T02:24:53.764Z,5.50
2022-12-26T02:27:45.396Z,4.97
2022-12-26T02:30:31.058Z,5.57
2022-12-26T02:33:18.857Z,5.32
2022-12-26T02:35:57.301Z,5.05
2022-12-26T02:38:32.617Z,5.63
2022-12-26T02:41:07.878Z,5.28
2022-12-26T02:43:38.819Z,5.30
2022-12-26T02:46:30.838Z,4.97
2022-12-26T02:49:00.187Z,4.90
2022-12-26T02:51:55.112Z,5.00
2022-12-26T02:54:46.057Z,4.90
2022-12-26T02:57:36.392Z,4.25
2022-12-26T03:00:24.443Z,5.43
2022-12-26T03:03:12.312Z,4.93
2022-12-26T03:06:00.236Z,5.05
2022-12-26T03:08:48.054Z,5.03
2022-12-26T03:11:33.746Z,5.32
2022-12-26T03:14:09.171Z,5.38
2022-12-26T03:16:54.448Z,6.40
2022-12-26T03:19:26.884Z,4.82
2022-12-26T03:21:54.948Z,5.18
2022-12-26T03:24:23.896Z,5.75
2022-12-26T03:26:53.173Z,5.35
2022-12-26T03:29:40.600Z,5.13
2022-12-26T03:32:10.295Z,5.00
2022-12-26T03:34:42.368Z,4.47
2022-12-26T03:37:48.680Z,5.18
2022-12-26T03:40:43.499Z,4.47
2022-12-26T03:43:39.526Z,4.32
2022-12-26T03:46:32.284Z,4.78
2022-12-26T03:49:24.831Z,5.32
2022-12-26T03:52:15.893Z,4.32
2022-12-26T03:55:06.235Z,4.38
2022-12-26T03:57:57.485Z,3.63
2022-12-26T04:00:43.687Z,5.13
2022-12-26T04:03:31.659Z,5.28
2022-12-26T04:06:17.924Z,3.85
2022-12-26T04:09:09.225Z,4.93
2022-12-26T04:11:55.945Z,4.13
2022-12-26T04:14:52.413Z,4.07
2022-12-26T04:17:43.944Z,4.57
2022-12-26T04:20:16.545Z,4.05
2022-12-26T04:23:04.209Z,4.68
2022-12-26T04:25:54.334Z,3.83
2022-12-26T04:28:40.075Z,4.55
2022-12-26T04:31:28.894Z,3.88
2022-12-26T04:34:17.386Z,5.32
2022-12-26T04:37:06.886Z,4.07
2022-12-26T04:39:53.036Z,3.38
2022-12-26T04:42:40.462Z,4.03
2022-12-26T04:45:09.180Z,4.38
2022-12-26T04:47:37.365Z,4.35
2022-12-26T04:50:12.123Z,4.65
2022-12-26T04:52:57.918Z,4.45
2022-12-26T04:55:26.111Z,5.05
2022-12-26T04:57:55.546Z,5.43
2022-12-26T05:00:25.231Z,5.75
2022-12-26T05:03:16.237Z,5.53
2022-12-26T05:06:06.587Z,4.88
2022-12-26T05:08:55.472Z,5.90
2022-12-26T05:11:25.282Z,5.85
2022-12-26T05:13:55.337Z,5.18
2022-12-26T05:16:41.659Z,6.43
2022-12-26T05:19:28.839Z,6.20
2022-12-26T05:22:14.185Z,5.82
2022-12-26T05:25:01.693Z,5.63
2022-12-26T05:27:54.181Z,6.60
2022-12-26T05:30:23.843Z,4.87
2022-12-26T05:33:09.243Z,6.28
2022-12-26T05:35:37.341Z,5.78
2022-12-26T05:38:05.380Z,5.93
2022-12-26T05:40:33.374Z,4.22
2022-12-26T05:43:01.222Z,6.07
2022-12-26T05:45:30.443Z,5.28
2022-12-26T05:48:00.142Z,6.45
2022-12-26T05:50:28.089Z,5.78
2022-12-26T05:52:57.977Z,5.00
2022-12-26T05:55:25.864Z,4.78
2022-12-26T05:57:53.798Z,6.35
2022-12-26T06:00:22.070Z,6.15
2022-12-26T06:02:51.539Z,5.68
2022-12-26T06:05:19.980Z,5.70
2022-12-26T06:07:47.995Z,6.43
2022-12-26T06:10:19.042Z,6.10
2022-12-26T06:12:47.775Z,6.10
2022-12-26T06:15:17.004Z,7.05
2022-12-26T06:17:44.842Z,7.43
2022-12-26T06:20:14.203Z,6.70
2022-12-26T06:22:42.119Z,6.95
2022-12-26T06:25:10.809Z,6.53
2022-12-26T06:27:38.625Z,6.68
2022-12-26T06:30:07.354Z,6.97
2022-12-26T06:32:35.164Z,6.75
2022-12-26T06:35:03.106Z,4.00
2022-12-26T06:37:34.076Z,4.70
2022-12-26T06:40:02.008Z,5.68
2022-12-26T06:42:29.923Z,6.53
2022-12-26T06:44:57.776Z,6.10
2022-12-26T06:47:25.661Z,5.50
2022-12-26T06:49:53.514Z,6.60
2022-12-26T06:52:21.321Z,5.35
2022-12-26T06:54:50.497Z,4.72
2022-12-26T06:57:18.345Z,5.03
2022-12-26T06:59:46.770Z,6.03
2022-12-26T07:02:14.749Z,5.53
2022-12-26T07:04:42.819Z,5.90
2022-12-26T07:07:10.676Z,6.57
2022-12-26T07:09:38.553Z,5.63
2022-12-26T07:12:08.349Z,5.90
2022-12-26T07:14:36.142Z,5.68
2022-12-26T07:17:04.076Z,6.57
2022-12-26T07:19:32.065Z,5.95
2022-12-26T07:21:59.870Z,3.67
2022-12-26T07:24:27.737Z,5.93
2022-12-26T07:26:55.626Z,4.93
2022-12-26T07:29:25.030Z,5.85
2022-12-26T07:31:52.968Z,7.53
2022-12-26T07:34:22.335Z,6.78
2022-12-26T07:36:51.865Z,6.05
2022-12-26T07:39:19.706Z,7.43
2022-12-26T07:41:59.479Z,8.45
2022-12-26T07:44:29.969Z,5.80
2022-12-26T07:46:58.761Z,8.45
2022-12-26T07:49:27.089Z,6.18
2022-12-26T07:51:55.005Z,8.23
2022-12-26T07:54:23.019Z,7.60
2022-12-26T07:56:50.844Z,6.57
2022-12-26T07:59:19.094Z,7.13
2022-12-26T08:01:48.577Z,7.93
2022-12-26T08:04:16.584Z,9.10
2022-12-26T08:06:44.416Z,8.55
2022-12-26T08:09:15.926Z,7.65
2022-12-26T08:11:44.048Z,7.50
2022-12-26T08:14:12.236Z,6.25
2022-12-26T08:16:40.379Z,5.35
2022-12-26T08:19:11.526Z,7.00
2022-12-26T08:21:39.423Z,6.90
2022-12-26T08:24:07.681Z,5.97
2022-12-26T08:26:35.547Z,7.13
2022-12-26T08:29:03.405Z,7.07
2022-12-26T08:31:31.266Z,7.07
2022-12-26T08:33:59.074Z,7.57
2022-12-26T08:36:28.260Z,7.20
2022-12-26T08:38:57.072Z,7.63
2022-12-26T08:41:25.276Z,7.20
2022-12-26T08:46:42.114Z,7.20
2022-12-26T08:49:09.952Z,6.28
2022-12-26T08:51:39.358Z,4.13
2022-12-26T08:54:07.205Z,5.97
2022-12-26T08:56:35.074Z,4.55
2022-12-26T08:59:02.937Z,4.82
2022-12-26T09:01:31.873Z,5.43
2022-12-26T09:04:03.144Z,3.95
2022-12-26T09:06:33.274Z,4.13
2022-12-26T09:09:02.840Z,6.22
2022-12-26T09:11:30.926Z,5.15
2022-12-26T09:14:01.284Z,4.70
2022-12-26T09:16:37.181Z,7.45
2022-12-26T09:19:07.483Z,4.30
2022-12-26T09:21:35.327Z,7.03
2022-12-26T09:24:06.314Z,5.93
2022-12-26T09:26:34.999Z,8.02
2022-12-26T09:29:03.330Z,7.60
2022-12-26T09:31:32.616Z,4.18
2022-12-26T09:34:02.492Z,3.67
2022-12-26T09:36:32.428Z,5.53
2022-12-26T09:39:00.965Z,5.82
2022-12-26T09:41:55.283Z,6.78
2022-12-26T09:44:27.015Z,6.40
2022-12-26T09:47:02.384Z,5.18
2022-12-26T09:49:32.698Z,7.15
2022-12-26T09:52:05.632Z,5.30
2022-12-26T09:54:35.799Z,5.78
2022-12-26T09:57:17.853Z,5.57
2022-12-26T09:59:50.040Z,7.15
2022-12-26T10:02:19.447Z,4.28
2022-12-26T10:04:47.471Z,5.43
2022-12-26T10:07:20.234Z,7.60
2022-12-26T10:10:01.863Z,6.45
2022-12-26T10:12:40.261Z,6.53
2022-12-26T10:15:23.484Z,5.45
2022-12-26T10:20:24.848Z,6.75
2022-12-26T10:23:08.382Z,6.82
2022-12-26T10:25:43.288Z,6.03
2022-12-26T10:28:18.387Z,7.20
2022-12-26T10:30:46.987Z,5.70
2022-12-26T10:33:19.016Z,7.05
2022-12-26T10:35:47.944Z,7.20
2022-12-26T10:38:25.605Z,6.78
2022-12-26T10:40:57.606Z,5.18
2022-12-26T10:43:29.909Z,4.35
2022-12-26T10:46:28.977Z,6.47
2022-12-26T10:48:57.239Z,4.93
2022-12-26T10:51:25.701Z,4.72
2022-12-26T10:53:54.615Z,5.28
2022-12-26T10:56:24.265Z,4.85
2022-12-26T10:59:01.414Z,4.68
2022-12-26T11:01:34.508Z,5.15
2022-12-26T11:04:03.468Z,4.93
2022-12-26T11:06:33.928Z,5.47
2022-12-26T11:09:01.802Z,3.60
2022-12-26T11:11:45.963Z,5.30
2022-12-26T11:14:33.856Z,4.00
2022-12-26T11:17:05.837Z,5.22
2022-12-26T11:19:35.175Z,5.28
2022-12-26T11:22:25.622Z,5.63
2022-12-26T11:25:13.880Z,4.30
2022-12-26T11:27:44.283Z,4.32
2022-12-26T11:30:25.881Z,5.60
2022-12-26T11:33:11.701Z,4.38
2022-12-26T11:35:50.097Z,4.78
2022-12-26T11:38:37.355Z,5.93
2022-12-26T11:41:29.364Z,5.35
2022-12-26T11:43:59.004Z,6.00
2022-12-26T11:46:36.657Z,5.78
2022-12-26T11:49:04.895Z,6.28
2022-12-26T11:51:39.921Z,4.90
2022-12-26T11:54:21.248Z,7.22
2022-12-26T11:56:49.599Z,7.07
2022-12-26T11:59:21.982Z,5.57
2022-12-26T12:02:16.417Z,6.60
2022-12-26T12:04:44.627Z,6.72
2022-12-26T12:07:19.525Z,7.00
2022-12-26T12:09:54.280Z,8.05
2022-12-26T12:12:26.647Z,7.50
2022-12-26T12:15:01.559Z,8.43
2022-12-26T12:17:36.763Z,7.55
2022-12-26T12:20:18.827Z,7.45
2022-12-26T12:23:04.988Z,5.90
2022-12-26T12:25:43.166Z,7.32
2022-12-26T12:28:25.644Z,7.07
2022-12-26T12:31:01.654Z,7.43
2022-12-26T12:33:41.684Z,6.78
2022-12-26T12:36:11.446Z,6.95
2022-12-26T12:38:57.610Z,6.43
2022-12-26T12:41:58.639Z,7.30
2022-12-26T12:44:33.144Z,6.20
2022-12-26T12:47:05.173Z,5.93
2022-12-26T12:49:44.768Z,6.40
2022-12-26T12:52:20.172Z,6.85
2022-12-26T12:55:12.436Z,5.60
2022-12-26T12:57:45.100Z,5.90
2022-12-26T13:00:16.550Z,4.65
2022-12-26T13:02:47.579Z,4.32
2022-12-26T13:05:26.771Z,5.40
2022-12-26T13:07:58.311Z,4.75
2022-12-26T13:10:29.465Z,4.45
2022-12-26T13:12:58.423Z,4.75
2022-12-26T13:15:31.014Z,5.80
2022-12-26T13:18:02.407Z,5.85
2022-12-26T13:20:35.956Z,6.15
2022-12-26T13:23:24.274Z,3.53
2022-12-26T13:26:08.897Z,5.15
2022-12-26T13:28:43.933Z,5.00
2022-12-26T13:31:11.769Z,5.97
2022-12-26T13:33:42.828Z,6.45
2022-12-26T13:36:35.798Z,4.78
2022-12-26T13:39:33.001Z,6.75
2022-12-26T13:42:22.816Z,5.32
2022-12-26T13:44:53.573Z,5.43
2022-12-26T13:47:36.434Z,6.25
2022-12-26T13:50:41.618Z,6.18
2022-12-26T13:53:28.474Z,6.18
2022-12-26T13:55:57.703Z,6.13
2022-12-26T13:58:44.208Z,5.97
2022-12-26T14:01:26.157Z,7.43
2022-12-26T14:04:09.961Z,6.85
2022-12-26T14:06:45.172Z,6.45
2022-12-26T14:09:34.243Z,5.20
2022-12-26T14:12:21.603Z,5.90
2022-12-26T14:15:03.419Z,6.50
2022-12-26T14:17:39.091Z,6.35
2022-12-26T14:20:19.644Z,6.15
2022-12-26T14:23:01.190Z,7.20
2022-12-26T14:25:34.012Z,5.57
2022-12-26T14:28:05.974Z,5.95
2022-12-26T14:30:37.719Z,5.28
2022-12-26T14:33:19.440Z,5.60
2022-12-26T14:35:58.095Z,5.20
2022-12-26T14:38:34.110Z,4.82
2022-12-26T14:41:05.921Z,5.93
2022-12-26T14:43:37.797Z,4.80
2022-12-26T14:46:11.431Z,6.22
2022-12-26T14:48:51.087Z,4.80
2022-12-26T14:51:38.164Z,4.85
2022-12-26T14:54:51.533Z,5.55
2022-12-26T14:57:49.610Z,3.85
2022-12-26T15:00:36.357Z,4.75
2022-12-26T15:03:46.634Z,3.65
2022-12-26T15:06:41.918Z,3.15
2022-12-26T15:09:29.130Z,3.05
2022-12-26T15:12:11.834Z,1.98
2022-12-26T15:15:01.063Z,2.78
2022-12-26T15:17:35.061Z,2.13
2022-12-26T15:20:28.491Z,2.67
2022-12-26T15:29:03.506Z,1.60
2022-12-26T15:31:39.522Z,0.90
2022-12-26T15:34:22.567Z,1.05
2022-12-26T15:36:54.838Z,1.10
2022-12-26T15:39:27.614Z,0.52
2022-12-26T15:42:00.829Z,0.77
2022-12-26T15:44:33.278Z,0.52
2022-12-26T15:47:14.567Z,0.90
2022-12-26T15:50:05.833Z,0.68
2022-12-26T15:52:42.978Z,0.70
2022-12-26T15:55:21.400Z,0.85
2022-12-26T15:57:55.831Z,0.50
2022-12-26T16:00:25.140Z,0.70
2022-12-26T16:03:15.697Z,0.77
2022-12-26T16:05:53.216Z,0.88
2022-12-26T16:08:55.735Z,0.63
2022-12-26T16:11:25.606Z,0.70
2022-12-26T16:13:57.549Z,0.65
2022-12-26T16:16:27.345Z,0.70
2022-12-26T16:18:56.800Z,0.52
2022-12-26T16:21:44.659Z,0.40
2022-12-26T16:24:20.243Z,0.60
2022-12-26T16:26:48.299Z,0.98
2022-12-26T16:29:19.138Z,0.60
2022-12-26T16:31:47.043Z,0.57
2022-12-26T16:34:19.140Z,0.57
2022-12-26T16:36:47.401Z,0.70
2022-12-26T16:39:23.588Z,1.40
2022-12-26T16:42:00.597Z,0.40
2022-12-26T16:44:33.077Z,0.60
2022-12-26T16:47:02.811Z,0.40
2022-12-26T16:49:32.943Z,0.52
2022-12-26T16:52:01.538Z,0.60
2022-12-26T16:54:31.932Z,0.70
2022-12-26T16:57:05.760Z,0.70
2022-12-26T16:59:41.336Z,0.75
2022-12-26T17:02:16.517Z,0.77
2022-12-26T17:04:55.506Z,1.17
2022-12-26T17:07:26.432Z,1.05
2022-12-26T17:09:56.610Z,0.60
2022-12-26T17:12:26.335Z,0.82
2022-12-26T17:14:55.747Z,1.48
2022-12-26T17:17:29.996Z,0.80
2022-12-26T17:20:25.656Z,0.80
2022-12-26T17:22:54.851Z,1.02
2022-12-26T17:25:26.705Z,0.85
2022-12-26T17:28:23.365Z,0.97
2022-12-26T17:30:53.560Z,1.15
2022-12-26T17:33:23.378Z,1.33
2022-12-26T17:38:44.609Z,0.90
2022-12-26T17:41:16.028Z,1.40
2022-12-26T17:43:44.523Z,1.13
2022-12-26T17:46:15.007Z,0.77
2022-12-26T17:48:43.282Z,0.70
2022-12-26T17:51:16.975Z,0.90
2022-12-26T17:53:49.259Z,1.00
2022-12-26T17:56:20.119Z,0.93
2022-12-26T17:58:48.293Z,1.65
2022-12-26T18:01:21.062Z,1.48
2022-12-26T18:03:49.490Z,1.05
2022-12-26T18:06:19.821Z,1.15
2022-12-26T18:08:47.953Z,1.02
2022-12-26T18:11:15.841Z,0.95
2022-12-26T18:13:44.309Z,1.17
2022-12-26T18:16:16.017Z,1.60
2022-12-26T18:18:45.513Z,1.70
2022-12-26T18:21:14.857Z,1.55
2022-12-26T18:23:44.217Z,1.10
2022-12-26T18:26:17.568Z,1.52
2022-12-26T18:28:45.546Z,1.00
2022-12-26T18:31:15.616Z,0.60
2022-12-26T18:33:43.523Z,1.38
2022-12-26T18:36:12.581Z,1.23
2022-12-26T18:38:40.430Z,1.20
2022-12-26T18:41:11.139Z,1.42
2022-12-26T18:43:39.558Z,1.50
2022-12-26T18:46:07.386Z,1.67
2022-12-26T18:48:35.245Z,1.20
2022-12-26T18:51:04.778Z,1.30
2022-12-26T18:53:32.581Z,1.67
2022-12-26T18:56:00.424Z,1.55
2022-12-26T18:58:29.730Z,1.17
2022-12-26T19:00:57.634Z,1.90
2022-12-26T19:03:25.478Z,1.63
2022-12-26T19:05:53.305Z,1.17
2022-12-26T19:08:21.117Z,1.30
2022-12-26T19:10:48.937Z,1.38
2022-12-26T19:13:16.854Z,1.70
2022-12-26T19:15:49.257Z,1.30
2022-12-26T19:18:17.124Z,1.55
2022-12-26T19:20:45.504Z,1.23
2022-12-26T19:23:13.388Z,0.98
2022-12-26T19:25:41.305Z,1.30
2022-12-26T19:28:09.133Z,1.60
2022-12-26T19:30:39.174Z,2.00
2022-12-26T19:33:08.763Z,2.10
2022-12-26T19:35:36.675Z,1.67
2022-12-26T19:38:04.795Z,1.60
2022-12-26T19:40:32.631Z,1.15
2022-12-26T19:43:00.592Z,1.27
2022-12-26T19:45:28.459Z,0.93
2022-12-26T19:47:58.362Z,1.38
2022-12-26T19:50:27.589Z,1.15
2022-12-26T19:52:55.381Z,0.98
2022-12-26T19:55:23.205Z,1.55
2022-12-26T19:57:51.160Z,1.67
2022-12-26T20:00:19.204Z,0.75
2022-12-26T20:02:47.646Z,1.42
2022-12-26T20:05:16.452Z,1.35
2022-12-26T20:07:45.792Z,1.60
2022-12-26T20:10:13.736Z,1.38
2022-12-26T20:12:41.598Z,1.77
2022-12-26T20:15:09.724Z,1.63
2022-12-26T20:17:37.609Z,2.33
2022-12-26T20:20:06.269Z,1.55
2022-12-26T20:22:34.127Z,1.20
2022-12-26T20:25:04.153Z,1.33
2022-12-26T20:27:32.995Z,2.33
2022-12-26T20:30:00.772Z,1.00
2022-12-26T20:32:28.859Z,2.08
2022-12-26T20:34:56.838Z,1.83
2022-12-26T20:37:24.637Z,1.02
2022-12-26T20:39:52.613Z,0.98
2022-12-26T20:42:22.054Z,1.83
2022-12-26T20:44:49.933Z,1.33
2022-12-26T20:47:17.963Z,1.60
2022-12-26T20:49:45.839Z,2.30
2022-12-26T20:52:13.671Z,1.75
2022-12-26T20:54:41.527Z,2.75
2022-12-26T20:57:09.345Z,1.10
2022-12-26T20:59:38.590Z,1.38
2022-12-26T21:02:07.021Z,1.35
2022-12-26T21:04:34.984Z,1.48
2022-12-26T21:07:02.829Z,2.33
2022-12-26T21:09:30.717Z,1.70
2022-12-26T21:11:58.562Z,1.95
2022-12-26T21:14:26.788Z,2.38
2022-12-26T21:16:57.483Z,2.90
2022-12-26T21:19:26.963Z,1.70
2022-12-26T21:21:55.778Z,1.98
2022-12-26T21:24:25.395Z,0.88
2022-12-26T21:26:53.832Z,1.23
2022-12-26T21:29:24.665Z,1.17
2022-12-26T21:31:53.055Z,1.40
2022-12-26T21:34:24.241Z,1.17
2022-12-26T21:37:10.516Z,1.25
2022-12-26T21:39:38.847Z,1.35
2022-12-26T21:42:08.066Z,1.45
2022-12-26T21:44:36.779Z,1.73
2022-12-26T21:47:05.226Z,1.38
2022-12-26T21:49:34.595Z,1.52
2022-12-26T21:52:02.459Z,1.35
2022-12-26T21:54:49.305Z,1.48
2022-12-26T21:57:17.758Z,1.42
2022-12-26T21:59:57.736Z,1.45
2022-12-26T22:02:44.961Z,1.15
2022-12-26T22:05:14.724Z,1.38
2022-12-26T22:07:42.713Z,1.20
2022-12-26T22:10:30.894Z,0.95
2022-12-26T22:12:57.790Z,1.40
2022-12-26T22:15:43.059Z,1.30
2022-12-26T22:18:11.162Z,1.52
2022-12-26T22:20:41.378Z,1.08
2022-12-26T22:23:09.282Z,0.73
2022-12-26T22:25:37.115Z,1.23
2022-12-26T22:28:05.140Z,1.38
2022-12-26T22:30:32.969Z,1.35
2022-12-26T22:33:00.787Z,1.85
2022-12-26T22:35:28.927Z,1.25
2022-12-26T22:37:58.185Z,1.55
2022-12-26T22:40:25.991Z,1.52
2022-12-26T22:42:53.785Z,1.33
2022-12-26T22:45:21.616Z,1.25
2022-12-26T22:47:49.489Z,1.02
2022-12-26T22:50:17.899Z,1.38
2022-12-26T22:52:46.075Z,1.65
2022-12-26T22:55:15.256Z,1.17
2022-12-26T22:57:48.115Z,1.20
2022-12-26T23:00:19.066Z,1.48
2022-12-26T23:02:46.942Z,1.40
2022-12-26T23:05:15.774Z,1.58
2022-12-26T23:07:44.193Z,1.35
2022-12-26T23:10:20.100Z,1.58
2022-12-26T23:12:48.719Z,1.20
2022-12-26T23:15:19.157Z,0.80
2022-12-26T23:18:13.945Z,1.30
2022-12-26T23:20:59.825Z,1.23
2022-12-26T23:23:28.281Z,1.15
2022-12-26T23:25:59.981Z,1.55
2022-12-26T23:28:45.451Z,1.52
2022-12-26T23:31:13.381Z,2.05
2022-12-26T23:33:41.315Z,1.77
2022-12-26T23:36:09.558Z,1.63
2022-12-26T23:38:37.404Z,2.08
2022-12-26T23:41:06.689Z,0.93
2022-12-26T23:43:34.531Z,0.98
2022-12-26T23:46:02.416Z,1.52
2022-12-26T23:48:30.244Z,1.02
2022-12-26T23:51:05.663Z,1.33
2022-12-26T23:53:33.632Z,1.83
2022-12-26T23:56:01.483Z,1.58
2022-12-26T23:58:30.730Z,1.52
